createdAt,value
2019-02-02T00:02:32.387Z,32.07
2019-02-02T00:05:35.988Z,31.50
2019-02-02T00:08:39.575Z,30.43
2019-02-02T00:11:43.107Z,30.90
2019-02-02T00:14:46.677Z,32.87
2019-02-02T00:17:50.511Z,28.83
2019-02-02T00:20:54.177Z,34.10
2019-02-02T00:23:58.069Z,29.73
2019-02-02T00:27:01.935Z,30.13
2019-02-02T00:30:07.917Z,29.50
2019-02-02T00:33:11.545Z,28.37
2019-02-02T00:36:15.389Z,30.57
2019-02-02T00:39:19.508Z,31.67
2019-02-02T00:42:23.420Z,28.93
2019-02-02T00:45:27.297Z,30.50
2019-02-02T00:48:31.230Z,28.87
2019-02-02T00:51:35.122Z,28.70
2019-02-02T00:54:38.734Z,27.83
2019-02-02T00:57:52.994Z,31.03
2019-02-02T01:00:48.448Z,28.07
2019-02-02T01:03:52.047Z,27.60
2019-02-02T01:06:55.672Z,29.07
2019-02-02T01:09:59.605Z,27.03
2019-02-02T01:13:03.402Z,29.13
2019-02-02T01:16:07.400Z,28.57
2019-02-02T01:19:11.000Z,27.50
2019-02-02T01:22:14.857Z,27.43
2019-02-02T01:25:18.852Z,26.27
2019-02-02T01:28:22.420Z,26.03
2019-02-02T01:31:26.278Z,28.83
2019-02-02T01:34:30.479Z,26.67
2019-02-02T01:37:34.416Z,28.70
2019-02-02T01:40:38.510Z,25.83
2019-02-02T01:43:42.458Z,27.57
2019-02-02T01:46:46.059Z,24.90
2019-02-02T01:49:49.658Z,26.40
2019-02-02T01:52:53.283Z,24.73
2019-02-02T01:55:57.456Z,25.63
2019-02-02T01:59:01.384Z,28.53
2019-02-02T02:02:05.139Z,24.37
2019-02-02T02:05:09.528Z,25.17
2019-02-02T02:08:13.722Z,26.30
2019-02-02T02:11:17.323Z,25.67
2019-02-02T02:14:21.326Z,26.37
2019-02-02T02:17:25.289Z,28.63
2019-02-02T02:20:29.174Z,26.00
2019-02-02T02:23:33.373Z,26.47
2019-02-02T02:26:37.402Z,26.73
2019-02-02T02:29:41.447Z,28.13
2019-02-02T02:32:45.114Z,26.57
2019-02-02T02:35:49.074Z,26.03
2019-02-02T02:38:56.302Z,26.93
2019-02-02T02:42:00.151Z,25.83
2019-02-02T02:45:04.260Z,24.87
2019-02-02T02:48:08.342Z,24.13
2019-02-02T02:51:12.183Z,24.30
2019-02-02T02:54:15.891Z,26.03
2019-02-02T02:57:19.792Z,26.57
2019-02-02T03:00:25.205Z,27.77
2019-02-02T03:03:28.787Z,27.43
2019-02-02T03:06:33.288Z,27.03
2019-02-02T03:09:36.861Z,25.67
2019-02-02T03:12:40.718Z,26.03
2019-02-02T03:15:44.308Z,24.43
2019-02-02T03:18:47.894Z,26.97
2019-02-02T03:21:51.838Z,27.93
2019-02-02T03:24:55.654Z,25.27
2019-02-02T03:27:59.274Z,25.20
2019-02-02T03:31:02.866Z,22.47
2019-02-02T03:34:06.438Z,29.70
2019-02-02T03:37:10.166Z,26.07
2019-02-02T03:40:18.399Z,25.27
2019-02-02T03:43:22.288Z,26.23
2019-02-02T03:46:26.165Z,28.20
2019-02-02T03:49:29.762Z,26.63
2019-02-02T03:52:33.999Z,24.87
2019-02-02T03:55:37.909Z,25.50
2019-02-02T03:58:41.659Z,26.10
2019-02-02T04:01:45.269Z,26.67
2019-02-02T04:04:48.891Z,25.20
2019-02-02T04:07:53.272Z,27.03
2019-02-02T04:10:57.460Z,22.97
2019-02-02T04:14:01.044Z,23.87
2019-02-02T04:17:04.980Z,27.03
2019-02-02T04:20:12.443Z,26.73
2019-02-02T04:23:16.011Z,49.67
2019-02-02T04:26:19.604Z,85.00
2019-02-02T04:29:23.508Z,44.87
2019-02-02T04:32:27.395Z,53.30
2019-02-02T04:35:31.313Z,49.90
2019-02-02T04:38:35.235Z,50.00
2019-02-02T04:41:38.799Z,46.07
2019-02-02T04:44:42.376Z,51.90
2019-02-02T04:47:46.017Z,41.60
2019-02-02T04:50:49.602Z,41.60
2019-02-02T04:53:53.430Z,42.57
2019-02-02T04:56:57.064Z,42.60
2019-02-02T05:00:00.971Z,37.60
2019-02-02T05:03:05.297Z,36.40
2019-02-02T05:06:08.883Z,40.03
2019-02-02T05:09:12.764Z,38.23
2019-02-02T05:12:16.341Z,36.90
2019-02-02T05:15:20.335Z,36.27
2019-02-02T05:18:23.896Z,37.50
2019-02-02T05:21:27.698Z,35.13
2019-02-02T05:24:31.256Z,33.30
2019-02-02T05:27:34.836Z,32.87
2019-02-02T05:30:38.743Z,30.80
2019-02-02T05:33:42.565Z,35.47
2019-02-02T05:36:46.125Z,32.57
2019-02-02T05:39:49.714Z,36.17
2019-02-02T05:42:54.008Z,31.80
2019-02-02T05:45:57.572Z,32.47
2019-02-02T05:49:01.401Z,28.77
2019-02-02T05:52:05.047Z,32.43
2019-02-02T05:55:10.234Z,35.63
2019-02-02T05:58:14.166Z,31.67
2019-02-02T06:01:20.041Z,34.13
2019-02-02T06:04:23.646Z,32.40
2019-02-02T06:07:27.487Z,33.27
2019-02-02T06:10:31.134Z,33.00
2019-02-02T06:13:34.713Z,31.47
2019-02-02T06:16:38.521Z,29.37
2019-02-02T06:19:42.642Z,28.70
2019-02-02T06:22:46.993Z,30.27
2019-02-02T06:25:50.818Z,30.00
2019-02-02T06:28:54.444Z,29.83
2019-02-02T06:31:58.326Z,30.00
2019-02-02T06:35:01.903Z,33.43
2019-02-02T06:38:05.737Z,30.50
2019-02-02T06:41:09.616Z,26.83
2019-02-02T06:44:13.452Z,29.60
2019-02-02T06:47:17.047Z,30.70
2019-02-02T06:50:21.280Z,30.60
2019-02-02T06:53:25.165Z,28.33
2019-02-02T06:56:28.724Z,30.53
2019-02-02T06:59:32.712Z,31.87
2019-02-02T07:02:36.297Z,31.80
2019-02-02T07:05:39.874Z,33.57
2019-02-02T07:08:43.726Z,29.10
2019-02-02T07:11:47.636Z,32.70
2019-02-02T07:14:51.639Z,29.57
2019-02-02T07:17:55.325Z,31.60
2019-02-02T07:20:58.873Z,29.17
2019-02-02T07:24:02.449Z,31.90
2019-02-02T07:27:06.316Z,30.03
2019-02-02T07:30:13.082Z,28.47
2019-02-02T07:33:17.185Z,30.43
2019-02-02T07:36:20.850Z,32.30
2019-02-02T07:39:24.697Z,29.60
2019-02-02T07:42:28.546Z,32.57
2019-02-02T07:45:32.472Z,36.87
2019-02-02T07:48:36.419Z,33.83
2019-02-02T07:51:40.013Z,31.67
2019-02-02T07:54:44.046Z,27.87
2019-02-02T07:57:48.138Z,29.33
2019-02-02T08:00:52.355Z,29.47
2019-02-02T08:03:56.259Z,29.43
2019-02-02T08:07:00.145Z,32.37
2019-02-02T08:10:05.502Z,29.87
2019-02-02T08:13:09.185Z,28.83
2019-02-02T08:16:12.773Z,30.70
2019-02-02T08:19:16.359Z,27.47
2019-02-02T08:22:19.911Z,31.33
2019-02-02T08:25:25.746Z,29.17
2019-02-02T08:28:29.503Z,33.30
2019-02-02T08:31:33.082Z,63.17
2019-02-02T08:34:36.694Z,76.50
2019-02-02T08:37:40.387Z,53.23
2019-02-02T08:40:43.966Z,50.33
2019-02-02T08:43:47.575Z,47.57
2019-02-02T08:46:51.764Z,46.07
2019-02-02T08:49:55.357Z,50.70
2019-02-02T08:52:59.026Z,45.53
2019-02-02T08:56:02.684Z,39.20
2019-02-02T08:59:06.333Z,41.90
2019-02-02T09:02:10.283Z,40.00
2019-02-02T09:05:15.226Z,40.90
2019-02-02T09:08:18.860Z,39.17
2019-02-02T09:11:22.834Z,37.43
2019-02-02T09:14:26.870Z,38.13
2019-02-02T09:17:30.545Z,38.50
2019-02-02T09:20:34.201Z,358.93
2019-02-02T09:23:37.993Z,101.23
2019-02-02T09:26:41.671Z,350.10
2019-02-02T09:29:47.840Z,105.77
2019-02-02T09:32:53.710Z,105.97
2019-02-02T09:35:59.910Z,99.33
2019-02-02T09:39:09.880Z,100.40
2019-02-02T09:42:14.736Z,91.23
2019-02-02T09:45:21.997Z,89.57
2019-02-02T09:48:29.202Z,81.10
2019-02-02T09:51:35.031Z,83.90
2019-02-02T09:54:43.346Z,71.70
2019-02-02T09:58:00.775Z,68.87
2019-02-02T10:01:07.223Z,66.83
2019-02-02T10:04:12.759Z,66.23
2019-02-02T10:07:16.457Z,63.33
2019-02-02T10:10:22.115Z,102.30
2019-02-02T10:13:25.722Z,107.67
2019-02-02T10:16:29.422Z,100.07
2019-02-02T10:19:32.999Z,100.97
2019-02-02T10:22:37.277Z,95.70
2019-02-02T10:25:41.018Z,91.47
2019-02-02T10:28:49.959Z,82.17
2019-02-02T10:32:01.932Z,83.87
2019-02-02T10:35:07.792Z,82.07
2019-02-02T10:38:12.031Z,81.53
2019-02-02T10:41:16.402Z,80.40
2019-02-02T10:44:20.034Z,72.73
2019-02-02T10:47:24.260Z,75.53
2019-02-02T10:50:28.065Z,73.53
2019-02-02T10:53:31.698Z,70.40
2019-02-02T10:56:36.002Z,75.00
2019-02-02T10:59:40.153Z,65.93
2019-02-02T11:02:49.116Z,66.83
2019-02-02T11:05:53.569Z,65.40
2019-02-02T11:09:03.998Z,69.57
2019-02-02T11:12:07.872Z,65.70
2019-02-02T11:15:13.356Z,70.77
2019-02-02T11:18:17.368Z,62.50
2019-02-02T11:21:21.387Z,64.87
2019-02-02T11:24:25.154Z,91.70
2019-02-02T11:27:29.297Z,121.03
2019-02-02T11:30:35.040Z,125.27
2019-02-02T11:33:39.075Z,133.77
2019-02-02T11:36:43.835Z,99.53
2019-02-02T11:39:47.717Z,91.57
2019-02-02T11:42:51.409Z,83.03
2019-02-02T11:45:55.297Z,89.30
2019-02-02T11:48:59.174Z,90.07
2019-02-02T11:52:03.070Z,80.03
2019-02-02T11:55:07.305Z,88.03
2019-02-02T11:58:10.980Z,79.80
2019-02-02T12:01:14.569Z,79.30
2019-02-02T12:04:18.881Z,79.57
2019-02-02T12:07:22.917Z,76.23
2019-02-02T12:10:27.512Z,74.23
2019-02-02T12:13:31.161Z,126.70
2019-02-02T12:16:34.869Z,216.57
2019-02-02T12:19:39.652Z,179.47
2019-02-02T12:22:43.579Z,566.73
2019-02-02T12:25:47.174Z,352.37
2019-02-02T12:28:51.144Z,312.30
2019-02-02T12:31:54.868Z,300.97
2019-02-02T12:34:58.791Z,247.40
2019-02-02T12:38:02.802Z,183.27
2019-02-02T12:41:06.577Z,180.47
2019-02-02T12:44:10.287Z,157.63
2019-02-02T12:47:14.605Z,144.07
2019-02-02T12:50:18.446Z,137.70
2019-02-02T12:53:22.670Z,129.60
2019-02-02T12:56:26.280Z,122.27
2019-02-02T12:59:31.695Z,119.80
2019-02-02T13:02:38.207Z,112.80
2019-02-02T13:05:41.233Z,160.17
2019-02-02T13:08:45.118Z,270.90
2019-02-02T13:11:49.270Z,317.00
2019-02-02T13:14:52.866Z,281.17
2019-02-02T13:17:56.520Z,249.63
2019-02-02T13:21:00.106Z,231.87
2019-02-02T13:24:03.979Z,198.57
2019-02-02T13:27:07.552Z,186.83
2019-02-02T13:30:14.399Z,176.63
2019-02-02T13:33:18.302Z,175.33
2019-02-02T13:36:22.467Z,165.33
2019-02-02T13:39:26.070Z,156.40
2019-02-02T13:42:29.984Z,155.40
2019-02-02T13:45:34.012Z,156.20
2019-02-02T13:48:37.934Z,151.53
2019-02-02T13:51:41.671Z,144.47
2019-02-02T13:54:45.243Z,140.57
2019-02-02T13:57:48.985Z,139.47
2019-02-02T14:00:52.571Z,134.17
2019-02-02T14:03:56.153Z,132.73
2019-02-02T14:07:00.077Z,131.50
2019-02-02T14:10:04.554Z,132.53
2019-02-02T14:13:08.136Z,121.97
2019-02-02T14:16:11.703Z,124.07
2019-02-02T14:19:15.638Z,120.27
2019-02-02T14:22:19.219Z,116.33
2019-02-02T14:25:22.857Z,119.30
2019-02-02T14:28:28.472Z,113.03
2019-02-02T14:31:32.054Z,112.13
2019-02-02T14:34:40.104Z,108.20
2019-02-02T14:37:40.923Z,113.43
2019-02-02T14:40:45.128Z,109.93
2019-02-02T14:43:48.727Z,111.27
2019-02-02T14:46:52.314Z,106.13
2019-02-02T14:49:56.208Z,106.03
2019-02-02T14:52:59.782Z,102.17
2019-02-02T14:56:03.377Z,97.03
2019-02-02T14:59:07.040Z,94.63
2019-02-02T15:02:10.869Z,96.53
2019-02-02T15:05:14.927Z,89.00
2019-02-02T15:08:18.526Z,91.07
2019-02-02T15:11:22.109Z,87.73
2019-02-02T15:14:25.695Z,87.80
2019-02-02T15:17:29.819Z,86.03
2019-02-02T15:20:35.542Z,86.07
2019-02-02T15:23:39.197Z,81.03
2019-02-02T15:26:43.102Z,80.73
2019-02-02T15:29:46.972Z,81.53
2019-02-02T15:32:50.634Z,82.80
2019-02-02T15:35:55.086Z,81.50
2019-02-02T15:38:58.753Z,75.10
2019-02-02T15:42:02.644Z,81.50
2019-02-02T15:45:07.878Z,83.27
2019-02-02T15:48:11.487Z,73.83
2019-02-02T15:51:15.300Z,95.67
2019-02-02T15:54:18.878Z,90.97
2019-02-02T15:57:22.802Z,98.40
2019-02-02T16:00:32.163Z,141.20
2019-02-02T16:03:36.075Z,129.07
2019-02-02T16:06:39.747Z,124.20
2019-02-02T16:09:43.675Z,118.60
2019-02-02T16:12:47.596Z,118.67
2019-02-02T16:15:51.157Z,109.20
2019-02-02T16:18:54.996Z,113.53
2019-02-02T16:21:58.580Z,114.57
2019-02-02T16:25:02.144Z,103.43
2019-02-02T16:28:06.636Z,94.97
2019-02-02T16:31:10.193Z,94.47
2019-02-02T16:34:14.034Z,91.90
2019-02-02T16:37:17.666Z,82.13
2019-02-02T16:40:22.847Z,84.47
2019-02-02T16:43:26.495Z,83.00
2019-02-02T16:46:30.061Z,81.83
2019-02-02T16:49:33.805Z,75.33
2019-02-02T16:52:37.373Z,75.50
2019-02-02T16:55:41.746Z,81.03
2019-02-02T16:58:45.326Z,83.17
2019-02-02T17:01:48.886Z,71.20
2019-02-02T17:04:52.455Z,66.67
2019-02-02T17:07:56.572Z,72.30
2019-02-02T17:11:00.147Z,69.90
2019-02-02T17:14:04.481Z,65.87
2019-02-02T17:17:08.484Z,64.63
2019-02-02T17:20:14.528Z,73.40
2019-02-02T17:23:19.516Z,69.60
2019-02-02T17:26:23.869Z,68.23
2019-02-02T17:29:27.442Z,63.63
2019-02-02T17:32:31.661Z,59.67
2019-02-02T17:35:35.572Z,80.97
2019-02-02T17:38:39.160Z,67.47
2019-02-02T17:41:43.395Z,66.80
2019-02-02T17:44:47.594Z,66.53
2019-02-02T17:47:51.743Z,58.43
2019-02-02T17:50:55.906Z,61.37
2019-02-02T17:53:59.484Z,60.30
2019-02-02T17:57:03.077Z,61.60
2019-02-02T18:00:20.188Z,110.83
2019-02-02T18:03:24.270Z,205.33
2019-02-02T18:06:27.831Z,154.07
2019-02-02T18:09:31.753Z,151.83
2019-02-02T18:12:35.696Z,125.33
2019-02-02T18:15:39.856Z,121.47
2019-02-02T18:18:43.505Z,116.23
2019-02-02T18:21:47.720Z,108.40
2019-02-02T18:24:51.601Z,104.97
2019-02-02T18:27:55.503Z,105.73
2019-02-02T18:30:59.106Z,100.00
2019-02-02T18:34:03.286Z,92.10
2019-02-02T18:37:06.847Z,119.97
2019-02-02T18:40:12.390Z,132.50
2019-02-02T18:43:16.811Z,128.53
2019-02-02T18:46:20.443Z,121.30
2019-02-02T18:49:24.034Z,108.47
2019-02-02T18:52:27.815Z,110.13
2019-02-02T18:55:37.735Z,109.20
2019-02-02T18:58:41.583Z,100.97
2019-02-02T19:01:45.326Z,102.10
2019-02-02T19:04:49.178Z,95.73
2019-02-02T19:07:52.742Z,89.60
2019-02-02T19:10:56.306Z,92.50
2019-02-02T19:13:59.900Z,151.33
2019-02-02T19:17:04.131Z,146.50
2019-02-02T19:20:10.305Z,149.63
2019-02-02T19:23:24.592Z,135.37
2019-02-02T19:26:19.245Z,132.83
2019-02-02T19:29:23.093Z,116.73
2019-02-02T19:32:26.943Z,116.97
2019-02-02T19:35:30.834Z,108.77
2019-02-02T19:38:34.415Z,103.90
2019-02-02T19:41:37.975Z,102.07
2019-02-02T19:44:41.565Z,104.13
2019-02-02T19:47:45.284Z,99.00
2019-02-02T19:50:49.393Z,96.90
2019-02-02T19:53:53.299Z,100.73
2019-02-02T19:56:56.880Z,91.10
2019-02-02T20:00:02.743Z,89.30
2019-02-02T20:03:06.144Z,93.40
2019-02-02T20:06:09.778Z,91.47
2019-02-02T20:09:13.819Z,81.93
2019-02-02T20:12:17.996Z,86.87
2019-02-02T20:15:23.145Z,84.70
2019-02-02T20:18:27.048Z,82.53
2019-02-02T20:21:31.235Z,78.67
2019-02-02T20:24:35.099Z,79.53
2019-02-02T20:27:38.702Z,83.67
2019-02-02T20:30:42.582Z,79.73
2019-02-02T20:33:46.180Z,78.50
2019-02-02T20:36:50.079Z,77.27
2019-02-02T20:39:53.661Z,75.93
2019-02-02T20:42:57.251Z,73.80
2019-02-02T20:46:01.217Z,77.10
2019-02-02T20:49:07.907Z,68.40
2019-02-02T20:52:10.291Z,72.87
2019-02-02T20:55:16.281Z,62.83
2019-02-02T20:58:19.873Z,76.13
2019-02-02T21:01:23.458Z,71.33
2019-02-02T21:04:27.045Z,112.23
2019-02-02T21:07:31.257Z,130.73
2019-02-02T21:10:35.147Z,146.67
2019-02-02T21:13:38.970Z,139.70
2019-02-02T21:16:42.919Z,127.87
2019-02-02T21:19:46.737Z,118.43
2019-02-02T21:22:50.597Z,123.67
2019-02-02T21:25:54.174Z,130.77
2019-02-02T21:28:58.332Z,119.60
2019-02-02T21:32:01.949Z,117.53
2019-02-02T21:35:05.939Z,111.00
2019-02-02T21:38:09.670Z,109.00
2019-02-02T21:41:13.772Z,102.83
2019-02-02T21:44:17.360Z,98.30
2019-02-02T21:47:21.707Z,101.40
2019-02-02T21:50:25.381Z,99.87
2019-02-02T21:53:29.216Z,95.17
2019-02-02T21:56:33.116Z,94.43
2019-02-02T21:59:36.938Z,99.70
2019-02-02T22:02:40.510Z,85.50
2019-02-02T22:05:44.178Z,87.97
2019-02-02T22:08:48.053Z,88.47
2019-02-02T22:11:51.877Z,86.40
2019-02-02T22:14:55.459Z,88.83
2019-02-02T22:17:59.210Z,79.13
2019-02-02T22:21:03.079Z,84.50
2019-02-02T22:24:06.655Z,79.33
2019-02-02T22:27:10.502Z,79.33
2019-02-02T22:30:21.878Z,78.53
2019-02-02T22:33:25.897Z,77.23
2019-02-02T22:36:29.757Z,75.03
2019-02-02T22:39:33.577Z,78.80
2019-02-02T22:42:37.162Z,80.20
2019-02-02T22:45:40.774Z,78.60
2019-02-02T22:48:44.354Z,71.67
2019-02-02T22:51:47.920Z,92.37
2019-02-02T22:54:51.576Z,93.10
2019-02-02T22:57:55.884Z,107.80
2019-02-02T23:01:33.087Z,108.83
2019-02-02T23:04:53.003Z,105.70
2019-02-02T23:08:17.273Z,100.57
2019-02-02T23:11:37.928Z,96.43
2019-02-02T23:14:55.013Z,90.37
2019-02-02T23:17:58.984Z,91.67
2019-02-02T23:21:02.789Z,88.43
2019-02-02T23:24:06.407Z,89.17
2019-02-02T23:27:10.566Z,83.60
2019-02-02T23:30:14.756Z,91.07
2019-02-02T23:33:18.607Z,85.63
2019-02-02T23:36:22.539Z,90.60
2019-02-02T23:39:26.109Z,81.10
2019-02-02T23:42:29.693Z,80.73
2019-02-02T23:45:33.274Z,83.10
2019-02-02T23:48:36.887Z,83.90
2019-02-02T23:51:40.691Z,81.33
2019-02-02T23:54:44.667Z,79.53
2019-02-02T23:57:48.608Z,77.17
